• Join FlightAware (Why Join?)
  • Login
  • US Flag 
06:45AM EST


 

Airport Tracker/Info


-or-


 

Live Flight TrackerFlight Track Log ✈ SWA641 ✈ 19-Apr-2013 ✈ KSTL - KPHL

Flight Track Log - Related Links

Times and Time Zones

All times are in EDT time to prevent confusion due to time zone crossing. See the SWA641 flight status page for this flight to view local times or setup timezone preferences in your user account.

Time Position Orientation Groundspeed Altitude Reporting Facility
EDT Latitude Longitude Course Direction KTS MPH feet Rate Location/Type
01:26PM 38.7689 -90.3336 82° East 163 188 2,300  Level FAA TRACON SMA TRACON (SMA)
01:26PM 38.7844 -90.3417 338° Northwest 187 215 2,500 420 Climbing FAA TRACON SMA TRACON (SMA)
01:26PM 38.8058 -90.3514 340° North 211 243 2,600 300 Climbing FAA TRACON SMA TRACON (SMA)
01:27PM 38.8236 -90.3567 347° North 217 250 2,700 600 Climbing FAA TRACON SMA TRACON (SMA)
01:27PM 38.8419 -90.3497 16° North 228 262 3,000 1,200 Climbing FAA TRACON SMA TRACON (SMA)
01:27PM 38.8550 -90.3267 54° Northeast 259 298 3,500 3,420 Climbing FAA TRACON SMA TRACON (SMA)
01:28PM 38.8556 -90.2878 89° East 285 328 5,300 4,200 Climbing FAA TRACON SMA TRACON (SMA)
01:28PM 38.8519 -90.2558 98° East 290 334 6,300 3,120 Climbing FAA TRACON SMA TRACON (SMA)
01:28PM 38.8489 -90.2233 97° East 299 344 7,400 3,420 Climbing FAA TRACON SMA TRACON (SMA)
01:29PM 38.8458 -90.1806 95° East 311 358 8,600 3,420 Climbing FAA TRACON SMA TRACON (SMA)
01:29PM 38.8433 -90.1456 95° East 320 368 9,700 3,120 Climbing FAA TRACON SMA TRACON (SMA)
01:29PM 38.8400 -90.1094 97° East 328 377 10,700 3,120 Climbing FAA TRACON SMA TRACON (SMA)
01:30PM 38.8331 -90.0233 96° East 355 409 12,900 3,240 Climbing FAA TRACON SMA TRACON (SMA)
01:30PM 38.8311 -89.9839 94° East 361 415 13,900 3,000 Climbing FAA TRACON SMA TRACON (SMA)
01:31PM 38.7742 -89.5828 82° East  Level FlightAware Approximate
01:31PM 38.8272 -89.9433 97° East 371 427 14,800  Level FAA TRACON SMA TRACON (SMA)
01:31PM 38.8236 -89.8919 95° East 378 435 16,000 3,420 Climbing FAA TRACON SMA TRACON (SMA)
01:31PM 38.8206 -89.8500 95° East 384 442 17,100 3,840 Climbing FAA TRACON SMA TRACON (SMA)
01:32PM 38.8167 -89.7975 95° East 384 442 18,500 3,420 Climbing FAA TRACON SMA TRACON (SMA)
01:32PM 38.8114 -89.7547 99° East 392 451 19,400 2,520 Climbing FAA TRACON SMA TRACON (SMA)
01:32PM 38.8103 -89.7122 92° East 392 451 20,200 2,460 Climbing FAA TRACON SMA TRACON (SMA)
01:33PM 38.8061 -89.6567 95° East 404 465 21,100 2,160 Climbing FAA TRACON SMA TRACON (SMA)
01:33PM 38.8022 -89.6119 96° East 410 472 21,700 2,100 Climbing FAA TRACON SMA TRACON (SMA)
01:33PM 38.7994 -89.5658 94° East 419 482 22,500 2,580 Climbing FAA TRACON SMA TRACON (SMA)
01:34PM 38.7936 -89.5078 97° East 426 490 23,500 2,580 Climbing FAA TRACON SMA TRACON (SMA)
01:34PM 38.7922 -89.4608 92° East 430 495 24,300 2,280 Climbing FAA TRACON SMA TRACON (SMA)
01:34PM 38.7969 -89.4133 83° East 435 501 25,000 2,460 Climbing FAA TRACON SMA TRACON (SMA)
01:35PM 38.8039 -89.3539 81° East 441 507 25,900 1,860 Climbing FAA TRACON SMA TRACON (SMA)
01:35PM 38.8164 -89.2569 81° East 449 517 26,900 1,500 Climbing FAA TRACON SMA TRACON (SMA)
01:36PM 38.8261 -89.1947 79° East 462 532 27,400 1,500 Climbing FAA TRACON SMA TRACON (SMA)
01:36PM 38.8328 -89.1436 80° East 471 542 27,900 1,620 Climbing FAA TRACON SMA TRACON (SMA)
01:36PM 38.8381 -89.0917 83° East 475 547 28,500 1,620 Climbing FAA TRACON SMA TRACON (SMA)
01:37PM 38.8481 -89.0833 33° Northeast 472 543 29,200 1,500 Climbing Kansas City Center
01:38PM 38.8694 -88.9114 81° East 486 559 30,700 1,320 Climbing Kansas City Center
01:39PM 38.8919 -88.7333 81° East 501 577 32,000 1,140 Climbing Kansas City Center
01:40PM 38.9169 -88.5317 81° East 520 598 33,100 1,380 Climbing Kansas City Center
01:41PM 38.9581 -88.3458 74° East 542 624 34,700 1,560 Climbing Indianapolis Center
01:42PM 39.0092 -88.1644 70° East 537 618 36,200 960 Climbing Indianapolis Center
01:43PM 39.0600 -87.9814 70° East 538 619 36,800 360 Climbing Indianapolis Center
01:44PM 39.1047 -87.7925 73° East 543 625 37,000 60 Climbing Indianapolis Center
01:45PM 39.1356 -87.6028 78° East 542 624 37,000  Level Indianapolis Center
01:46PM 39.1694 -87.4153 77° East 535 616 37,000  Level Indianapolis Center
01:47PM 39.2017 -87.2269 77° East 534 615 37,000 720 Level Indianapolis Center
01:48PM 39.2342 -87.0397 77° East 531 611 38,500 900 Climbing Indianapolis Center
01:49PM 39.2642 -86.8547 78° East 524 603 38,900 240 Climbing Indianapolis Center
01:50PM 39.2961 -86.6661 78° East 532 612 39,000  Climbing Indianapolis Center
01:51PM 39.3336 -86.4392 78° East 535 616 39,000  Level Indianapolis Center
01:52PM 39.3647 -86.2472 78° East 541 623 39,000  Level Indianapolis Center
01:53PM 39.3950 -86.0583 78° East 536 617 39,000  Level Indianapolis Center
01:54PM 39.4256 -85.8689 78° East 535 616 39,000  Level Indianapolis Center
01:56PM 39.4836 -85.4961 78° East 537 618 39,000  Level Indianapolis Center
01:57PM 39.5175 -85.2731 79° East 537 618 39,000  Level Indianapolis Center
01:58PM 39.5500 -85.0808 78° East 541 623 39,000  Level Indianapolis Center
01:59PM 39.5781 -84.8897 79° East 539 620 39,000  Level Indianapolis Center
02:00PM 39.6056 -84.6997 79° East 535 616 39,000  Level Indianapolis Center
02:01PM 39.6322 -84.5078 80° East 536 617 39,000  Level Indianapolis Center
02:02PM 39.6622 -84.3167 78° East 537 618 39,000  Level Indianapolis Center
02:03PM 39.6889 -84.1244 80° East 537 618 39,000  Level Indianapolis Center
02:04PM 39.7161 -83.9339 79° East 536 617 39,000  Level Indianapolis Center
02:05PM 39.7425 -83.7425 80° East 536 617 39,000  Level Indianapolis Center
02:06PM 39.7692 -83.5431 80° East 536 617 39,000  Level Indianapolis Center
02:08PM 39.7961 -83.3550 79° East 535 616 39,000  Level Indianapolis Center
02:09PM 39.8244 -83.1447 80° East 543 625 39,000 -360 Level Indianapolis Center
02:10PM 39.8500 -82.9478 80° East 548 631 38,300 -540 Descending Indianapolis Center
02:11PM 39.8764 -82.7486 80° East 554 638 38,000 -180 Descending Indianapolis Center
02:12PM 39.9069 -82.5175 80° East 554 638 38,000  Level Indianapolis Center
02:13PM 39.9311 -82.3203 81° East 549 632 38,000  Level Indianapolis Center
02:14PM 39.9550 -82.1242 81° East 544 626 38,000  Level Indianapolis Center
02:15PM 39.9797 -81.9281 81° East 545 627 38,000  Level Indianapolis Center
02:16PM 40.0022 -81.7467 81° East 545 627 38,000  Level Indianapolis Center
02:17PM 40.0289 -81.5186 81° East 544 626 38,000  Level Indianapolis Center
02:18PM 40.0506 -81.3322 81° East 523 602 38,000  Level Indianapolis Center
02:19PM 40.0722 -81.1450 81° East 520 598 38,000  Level Indianapolis Center
02:20PM 40.0894 -80.9847 82° East 520 598 38,000  Level Cleveland Center
02:21PM 40.1108 -80.8056 81° East 513 590 38,000  Level Cleveland Center
02:22PM 40.1317 -80.6211 82° East 513 590 38,000  Level Cleveland Center
02:23PM 40.1525 -80.4392 81° East 513 590 38,000  Level Cleveland Center
02:24PM 40.1731 -80.2569 82° East 508 585 38,000  Level Cleveland Center
02:25PM 40.1911 -80.0722 83° East 508 585 38,000 -300 Level Cleveland Center
02:26PM 40.2047 -79.8900 84° East 503 579 37,500 -1,500 Descending Cleveland Center
02:27PM 40.2181 -79.7186 84° East 492 566 35,000 -1,200 Descending Cleveland Center
02:28PM 40.2294 -79.5578 85° East 468 539 35,200  Climbing Cleveland Center
02:29PM 40.2425 -79.4000 84° East 447 514 35,000 -180 Descending Cleveland Center
02:30PM 40.2533 -79.2556 84° East 441 507 34,900 -300 Descending Cleveland Center
02:31PM 40.2639 -79.0975 85° East 441 507 34,400 -600 Descending Cleveland Center
02:32PM 40.2764 -78.9394 84° East 441 507 33,800 -660 Descending Cleveland Center
02:33PM 40.2864 -78.7814 85° East 436 502 33,100 -420 Descending Cleveland Center
02:34PM 40.2964 -78.6286 85° East 430 495 33,000 -60 Descending Cleveland Center
02:35PM 40.3000 -78.4733 88° East 425 489 33,000  Level Cleveland Center
02:36PM 40.2281 -78.4158 149° Southeast 305 351 33,000  Level Cleveland Center
02:37PM 40.1442 -78.3967 170° South 273 314 33,000  Level Cleveland Center
02:38PM 40.0669 -78.3992 181° South 282 325 33,000  Level Cleveland Center
02:39PM 40.0183 -78.4739 230° Southwest 251 289 33,000  Level Cleveland Center
02:40PM 40.0497 -78.5842 290° West 229 264 33,000  Level Cleveland Center
02:41PM 40.1547 -78.6381 339° North 268 308 33,000  Level Cleveland Center
02:42PM 40.2553 -78.5428 36° Northeast 309 356 33,000 -120 Level Cleveland Center
02:43PM 40.3044 -78.3889 67° East 347 399 32,800 -480 Descending Cleveland Center
02:44PM 40.2997 -78.2472 92° East 367 422 32,100 -900 Descending Cleveland Center
02:45PM 40.2069 -78.1961 157° South 251 289 31,100 -600 Descending Cleveland Center
02:46PM 40.1389 -78.2339 203° Southwest 202 232 31,000 -60 Descending Cleveland Center
02:47PM 40.1094 -78.3244 247° West 202 232 31,000 -300 Level Cleveland Center
02:48PM 40.1008 -78.4281 264° West 243 280 30,400 -1,260 Descending Cleveland Center
02:49PM 40.1733 -78.5125 318° Northwest 259 298 28,600 -1,680 Descending Cleveland Center
02:50PM 40.3044 -78.4950 North 307 353 27,100 -1,320 Descending Cleveland Center
02:51PM 40.3939 -78.3750 46° Northeast 356 410 26,000 -1,140 Descending Cleveland Center
02:51PM 40.3961 -78.2444 89° East 366 421 25,100 -600 Descending New York Center
02:52PM 40.3847 -78.0906 95° East 382 440 25,000 -60 Descending New York Center
02:53PM 40.3731 -77.9422 96° East 401 461 25,000 -120 Level New York Center
02:54PM 40.3608 -77.7992 96° East 401 461 24,800 -540 Descending New York Center
02:56PM 40.3486 -77.6508 96° East 406 467 24,000 -420 Descending New York Center
02:57PM 40.3383 -77.5028 95° East 406 467 24,000 -180 Level New York Center
02:57PM 40.3353 -77.3717 92° East 406 467 23,700 -660 Descending New York Center
02:58PM 40.3867 -77.2375 63° Northeast 398 458 22,700 -1,020 Descending New York Center
03:00PM 40.4003 -77.0997 83° East 398 458 21,700 -1,020 Descending New York Center
03:00PM 40.3314 -77.0253 141° Southeast 299 344 20,700 -1,020 Descending New York Center
03:01PM 40.2642 -76.9567 142° Southeast 291 335 19,700 -1,140 Descending New York Center
03:03PM 40.2356 -76.8236 106° East 319 367 18,500 -1,380 Descending New York Center
03:04PM 40.2100 -76.7072 106° East 329 379 17,000 -1,260 Descending New York Center
03:05PM 40.1864 -76.5992 106° East 335 386 16,000 -1,020 Descending New York Center
03:05PM 40.1594 -76.4692 105° East 335 386 15,000 -600 Descending New York Center
03:06PM 40.1411 -76.3744 104° East 335 386 15,000 -360 Level FAA TRACON SMA TRACON (SMA)
03:07PM 40.1389 -76.3328 94° East 347 399 14,600 -1,380 Descending FAA TRACON SMA TRACON (SMA)
03:07PM 40.1342 -76.2864 98° East 339 390 14,100 -1,080 Descending FAA TRACON SMA TRACON (SMA)
03:07PM 40.1297 -76.2514 99° East 333 383 13,900 -300 Descending FAA TRACON SMA TRACON (SMA)
03:08PM 40.1281 -76.2128 93° East 323 372 13,900 120 Level FAA TRACON SMA TRACON (SMA)
03:08PM 40.1239 -76.1711 97° East 298 343 14,000 120 Climbing FAA TRACON SMA TRACON (SMA)
03:08PM 40.1194 -76.1317 98° East 288 331 14,000  Level FAA TRACON SMA TRACON (SMA)
03:09PM 40.1172 -76.1083 97° East 285 328 14,000  Level FAA TRACON SMA TRACON (SMA)
03:09PM 40.1122 -76.0706 100° East 282 325 14,000 -180 Level FAA TRACON SMA TRACON (SMA)
03:09PM 40.1103 -76.0394 95° East 282 325 13,900  Descending FAA TRACON SMA TRACON (SMA)
03:10PM 40.1075 -76.0058 96° East 282 325 14,000 120 Climbing FAA TRACON SMA TRACON (SMA)
03:10PM 40.1039 -75.9686 97° East 279 321 14,000  Level FAA TRACON SMA TRACON (SMA)
03:10PM 40.1008 -75.9381 97° East 277 319 14,000  Level FAA TRACON SMA TRACON (SMA)
03:11PM 40.0986 -75.9089 96° East 277 319 14,000  Level FAA TRACON SMA TRACON (SMA)
03:11PM 40.0944 -75.8689 98° East 276 318 14,000  Level FAA TRACON SMA TRACON (SMA)
03:11PM 40.0911 -75.8386 98° East 275 316 14,000  Level FAA TRACON SMA TRACON (SMA)
03:12PM 40.0883 -75.8078 97° East 277 319 14,000  Level FAA TRACON SMA TRACON (SMA)
03:12PM 40.0842 -75.7689 98° East 279 321 14,000  Level FAA TRACON SMA TRACON (SMA)
03:12PM 40.0811 -75.7378 97° East 281 323 14,000  Level FAA TRACON SMA TRACON (SMA)
03:13PM 40.0858 -75.7058 79° East 305 351 14,000  Level FAA TRACON SMA TRACON (SMA)
03:13PM 40.1108 -75.6761 42° Northeast 324 373 14,000  Level FAA TRACON SMA TRACON (SMA)
03:13PM 40.1381 -75.6739 North 311 358 14,000  Level FAA TRACON SMA TRACON (SMA)
03:14PM 40.1578 -75.6900 328° Northwest 271 312 14,000  Level FAA TRACON SMA TRACON (SMA)
03:14PM 40.1728 -75.7189 304° West 251 289 14,000  Level FAA TRACON SMA TRACON (SMA)
03:14PM 40.1761 -75.7453 279° West 231 266 14,000  Level FAA TRACON SMA TRACON (SMA)
03:15PM 40.1772 -75.7711 273° West 236 272 14,000  Level FAA TRACON SMA TRACON (SMA)
03:15PM 40.1797 -75.8008 276° West 233 268 14,000  Level FAA TRACON SMA TRACON (SMA)
03:15PM 40.1811 -75.8292 274° West 232 267 14,000  Level FAA TRACON SMA TRACON (SMA)
03:16PM 40.1789 -75.8531 263° West 207 238 14,000  Level FAA TRACON SMA TRACON (SMA)
03:16PM 40.1664 -75.8767 235° Southwest 203 234 14,000  Level FAA TRACON SMA TRACON (SMA)
03:16PM 40.1531 -75.8889 215° Southwest 190 219 14,000  Level FAA TRACON SMA TRACON (SMA)
03:17PM 40.1353 -75.8933 191° South 207 238 14,000  Level FAA TRACON SMA TRACON (SMA)
03:17PM 40.1125 -75.8875 169° South 226 260 14,000  Level FAA TRACON SMA TRACON (SMA)
03:17PM 40.0972 -75.8708 140° Southeast 243 280 14,000  Level FAA TRACON SMA TRACON (SMA)
03:18PM 40.0878 -75.8456 116° Southeast 275 316 14,000  Level FAA TRACON SMA TRACON (SMA)
03:18PM 40.0856 -75.8075 94° East 275 316 14,000 -300 Level FAA TRACON SMA TRACON (SMA)
03:18PM 40.0842 -75.7753 93° East 281 323 13,800 -780 Descending FAA TRACON SMA TRACON (SMA)
03:19PM 40.0822 -75.7450 95° East 280 322 13,500 -1,080 Descending FAA TRACON SMA TRACON (SMA)
03:19PM 40.0925 -75.7044 72° East 331 381 13,100 -780 Descending FAA TRACON SMA TRACON (SMA)
03:19PM 40.1128 -75.6833 39° Northeast 313 360 13,000 -180 Descending FAA TRACON SMA TRACON (SMA)
03:20PM 40.1383 -75.6797 North 291 335 13,000  Level FAA TRACON SMA TRACON (SMA)
03:20PM 40.1608 -75.6903 340° North 284 327 13,000 -180 Level FAA TRACON SMA TRACON (SMA)
03:20PM 40.1778 -75.7178 309° West 254 292 12,900  Descending FAA TRACON SMA TRACON (SMA)
03:21PM 40.1825 -75.7431 284° West 225 259 13,000 120 Climbing FAA TRACON SMA TRACON (SMA)
03:21PM 40.1836 -75.7678 273° West 222 255 13,000  Level FAA TRACON SMA TRACON (SMA)
03:21PM 40.1853 -75.8000 274° West 225 259 13,000  Level FAA TRACON SMA TRACON (SMA)
03:22PM 40.1886 -75.8236 280° West 224 258 13,000  Level FAA TRACON SMA TRACON (SMA)
03:22PM 40.1842 -75.8533 259° West 209 241 13,000  Level FAA TRACON SMA TRACON (SMA)
03:22PM 40.1750 -75.8750 241° Southwest 222 255 13,000  Level FAA TRACON SMA TRACON (SMA)
03:23PM 40.1611 -75.8889 217° Southwest 209 241 13,000  Level FAA TRACON SMA TRACON (SMA)
03:23PM 40.1419 -75.8969 198° South 209 241 13,000  Level FAA TRACON SMA TRACON (SMA)
03:23PM 40.1228 -75.8942 174° South 207 238 13,000  Level FAA TRACON SMA TRACON (SMA)
03:24PM 40.1028 -75.8811 153° Southeast 222 255 13,000  Level FAA TRACON SMA TRACON (SMA)
03:24PM 40.0897 -75.8511 120° Southeast 244 281 13,000  Level FAA TRACON SMA TRACON (SMA)
03:24PM 40.0864 -75.8222 99° East 281 323 13,000  Level FAA TRACON SMA TRACON (SMA)
03:25PM 40.0847 -75.7908 94° East 287 330 13,000  Level FAA TRACON SMA TRACON (SMA)
03:25PM 40.0828 -75.7597 95° East 283 326 13,000  Level FAA TRACON SMA TRACON (SMA)
03:25PM 40.0847 -75.7200 86° East 293 337 13,000  Level FAA TRACON SMA TRACON (SMA)
03:26PM 40.1000 -75.6967 49° Northeast 309 356 13,000  Level FAA TRACON SMA TRACON (SMA)
03:26PM 40.1247 -75.6794 28° Northeast 304 350 13,000  Level FAA TRACON SMA TRACON (SMA)
03:26PM 40.1550 -75.6878 348° North 284 327 13,000  Level FAA TRACON SMA TRACON (SMA)
03:27PM 40.1717 -75.7075 318° Northwest 253 291 13,000  Level FAA TRACON SMA TRACON (SMA)
03:27PM 40.1792 -75.7319 292° West 240 276 13,000  Level FAA TRACON SMA TRACON (SMA)
03:27PM 40.1811 -75.7628 275° West 221 254 13,000  Level FAA TRACON SMA TRACON (SMA)
03:28PM 40.1825 -75.7878 274° West 223 257 13,000  Level FAA TRACON SMA TRACON (SMA)
03:28PM 40.1842 -75.8122 275° West 225 259 13,000  Level FAA TRACON SMA TRACON (SMA)
03:28PM 40.1850 -75.8381 272° West 226 260 13,000  Level FAA TRACON SMA TRACON (SMA)
03:29PM 40.1653 -75.8831 240° Southwest 206 237 13,000  Level FAA TRACON SMA TRACON (SMA)
03:29PM 40.1461 -75.8931 202° Southwest 205 236 13,000  Level FAA TRACON SMA TRACON (SMA)
03:30PM 40.1267 -75.8936 181° South 228 262 13,000 -300 Level FAA TRACON SMA TRACON (SMA)
03:30PM 40.1075 -75.8844 160° South 241 277 12,800 -1,080 Descending FAA TRACON SMA TRACON (SMA)
03:30PM 40.0906 -75.8578 130° Southeast 258 297 12,300 -1,380 Descending FAA TRACON SMA TRACON (SMA)
03:31PM 40.0869 -75.8264 99° East 292 336 11,900 -1,200 Descending FAA TRACON SMA TRACON (SMA)
03:31PM 40.0853 -75.7958 94° East 280 322 11,500 -1,200 Descending FAA TRACON SMA TRACON (SMA)
03:31PM 40.0833 -75.7581 94° East 281 323 11,100 -1,380 Descending FAA TRACON SMA TRACON (SMA)
03:32PM 40.0847 -75.7239 87° East 305 351 10,600 -1,200 Descending FAA TRACON SMA TRACON (SMA)
03:32PM 40.0986 -75.6978 55° Northeast 288 331 10,300 -900 Descending FAA TRACON SMA TRACON (SMA)
03:32PM 40.1203 -75.6844 25° Northeast 269 310 10,000 -900 Descending FAA TRACON SMA TRACON (SMA)
03:33PM 40.1467 -75.6883 354° North 248 285 9,700 -900 Descending FAA TRACON SMA TRACON (SMA)
03:33PM 40.1622 -75.7036 323° Northwest 217 250 9,400 -900 Descending FAA TRACON SMA TRACON (SMA)
03:33PM 40.1719 -75.7231 303° West 210 242 9,100 -1,080 Descending FAA TRACON SMA TRACON (SMA)
03:34PM 40.1758 -75.7494 281° West 193 222 8,700 -1,080 Descending FAA TRACON SMA TRACON (SMA)
03:34PM 40.1767 -75.7708 273° West 193 222 8,400 -1,080 Descending FAA TRACON SMA TRACON (SMA)
03:34PM 40.1781 -75.7925 275° West 192 221 8,000 -780 Descending FAA TRACON SMA TRACON (SMA)
03:35PM 40.1817 -75.8189 280° West 192 221 7,900  Descending FAA TRACON SMA TRACON (SMA)
03:35PM 40.1794 -75.8408 262° West 191 220 8,000 120 Climbing FAA TRACON SMA TRACON (SMA)
03:35PM 40.1750 -75.8597 253° West 189 217 8,000 -600 Level FAA TRACON SMA TRACON (SMA)
03:36PM 40.1611 -75.8786 226° Southwest 179 206 7,600 -1,080 Descending FAA TRACON SMA TRACON (SMA)
03:36PM 40.1447 -75.8861 199° South 201 231 7,300 -1,080 Descending FAA TRACON SMA TRACON (SMA)
03:36PM 40.1247 -75.8736 154° Southeast 239 275 6,900 -900 Descending FAA TRACON SMA TRACON (SMA)
03:37PM 40.1150 -75.8472 116° Southeast 256 295 6,700 -780 Descending FAA TRACON SMA TRACON (SMA)
03:37PM 40.1075 -75.8197 110° East 254 292 6,400 -780 Descending FAA TRACON SMA TRACON (SMA)
03:37PM 40.1008 -75.7947 109° East 250 288 6,200 -600 Descending FAA TRACON SMA TRACON (SMA)
03:38PM 40.0897 -75.7644 116° Southeast 239 275 6,000 -300 Descending FAA TRACON SMA TRACON (SMA)
03:38PM 40.0872 -75.7372 97° East 261 300 6,000  Level FAA TRACON SMA TRACON (SMA)
03:38PM 40.0967 -75.7039 70° East 273 314 6,000  Level FAA TRACON SMA TRACON (SMA)
03:39PM 40.1078 -75.6739 64° Northeast 280 322 6,000  Level FAA TRACON SMA TRACON (SMA)
03:39PM 40.1186 -75.6478 62° Northeast 277 319 6,000  Level FAA TRACON SMA TRACON (SMA)
03:39PM 40.1300 -75.6200 62° Northeast 278 320 6,000  Level FAA TRACON SMA TRACON (SMA)
03:40PM 40.1436 -75.5861 62° Northeast 278 320 6,000  Level FAA TRACON SMA TRACON (SMA)